Time;durP1;ratioP1;P1;durP2;ratioP2;P2;SDS_P1;SDS_P2;PMS_P1;PMS_P2;Temp;Humidity;BMP_temperature;BMP_pressure;BME280_temperature;BME280_humidity;BME280_pressure;Samples;Min_cycle;Max_cycle;Signal;HPM_P1;HPM_P2
2024/04/12 00:01:13;;;;;;;9.68;4.85;;;;;;;;;;5526134;25;20074;-72
2024/04/12 00:03:39;;;;;;;13.73;4.07;;;;;;;;;;5526074;25;19993;-73
2024/04/12 00:06:14;;;;;;;11.18;4.22;;;;;;;;;;5524199;25;20121;-73
2024/04/12 00:08:40;;;;;;;12.43;4.07;;;;;;;;;;5489187;26;20353;-72
2024/04/12 00:11:08;;;;;;;14.48;4.32;;;;;;;;;;5487092;26;20087;-72
2024/04/12 00:13:40;;;;;;;6.85;4.13;;;;;;;;;;5488624;26;20034;-71
2024/04/12 00:16:08;;;;;;;11.32;4.40;;;;;;;;;;5504800;26;20013;-71
2024/04/12 00:18:36;;;;;;;15.55;5.40;;;;;;;;;;5523049;25;20286;-72
2024/04/12 00:21:03;;;;;;;10.18;4.35;;;;;;;;;;5523369;25;20016;-73
2024/04/12 00:23:30;;;;;;;8.00;4.10;;;;;;;;;;5492960;26;20004;-72
2024/04/12 00:26:03;;;;;;;6.53;4.13;;;;;;;;;;5489948;26;19993;-72
2024/04/12 00:28:33;;;;;;;9.63;4.03;;;;;;;;;;5514332;25;20001;-72
2024/04/12 00:31:02;;;;;;;8.35;3.80;;;;;;;;;;5527294;25;20025;-73
2024/04/12 00:33:33;;;;;;;9.35;4.07;;;;;;;;;;5527187;25;19993;-72
2024/04/12 00:36:07;;;;;;;8.40;4.03;;;;;;;;;;5526559;25;20023;-71
2024/04/12 00:38:35;;;;;;;6.18;4.03;;;;;;;;;;5526922;25;20013;-71
2024/04/12 00:41:11;;;;;;;11.32;4.05;;;;;;;;;;5526164;25;20448;-71
2024/04/12 00:43:38;;;;;;;7.10;4.03;;;;;;;;;;5526740;26;20000;-73
2024/04/12 00:46:04;;;;;;;6.82;3.85;;;;;;;;;;5525095;25;20086;-71
2024/04/12 00:48:31;;;;;;;13.35;4.93;;;;;;;;;;5526920;26;20046;-71
2024/04/12 00:51:01;;;;;;;10.52;4.32;;;;;;;;;;5525861;25;20452;-72
2024/04/12 00:53:28;;;;;;;8.35;3.30;;;;;;;;;;5525068;25;19997;-71
2024/04/12 00:56:00;;;;;;;6.00;3.75;;;;;;;;;;5526005;25;20313;-74
2024/04/12 00:58:32;;;;;;;6.40;4.18;;;;;;;;;;5526744;25;19997;-71
2024/04/12 01:01:11;;;;;;;6.28;3.22;;;;;;;;;;5523897;25;20005;-72
2024/04/12 01:03:39;;;;;;;11.57;4.90;;;;;;;;;;5525120;25;20036;-71
2024/04/12 01:06:05;;;;;;;11.38;3.92;;;;;;;;;;5525732;25;20070;-73
2024/04/12 01:08:32;;;;;;;6.78;3.28;;;;;;;;;;5525231;25;19997;-73
2024/04/12 01:10:59;;;;;;;8.18;3.90;;;;;;;;;;5525680;25;20004;-72
2024/04/12 01:13:26;;;;;;;7.05;4.07;;;;;;;;;;5525442;25;20452;-72
2024/04/12 01:15:53;;;;;;;8.50;3.45;;;;;;;;;;5526024;25;20047;-72
2024/04/12 01:18:19;;;;;;;13.32;4.43;;;;;;;;;;5525053;25;20004;-72
2024/04/12 01:20:45;;;;;;;9.40;3.83;;;;;;;;;;5526363;25;20365;-71
2024/04/12 01:23:15;;;;;;;6.65;3.92;;;;;;;;;;5526326;25;20034;-71
2024/04/12 01:25:44;;;;;;;7.05;3.92;;;;;;;;;;5526839;25;19994;-72
2024/04/12 01:28:10;;;;;;;10.55;3.70;;;;;;;;;;5526717;25;20074;-71
2024/04/12 01:30:39;;;;;;;7.43;4.10;;;;;;;;;;5528683;25;20480;-72
2024/04/12 01:33:09;;;;;;;7.35;4.20;;;;;;;;;;5527840;25;19997;-72
2024/04/12 01:35:35;;;;;;;8.48;3.72;;;;;;;;;;5531835;25;20005;-73
2024/04/12 01:38:16;;;;;;;7.70;3.78;;;;;;;;;;5529165;25;20025;-72
2024/04/12 01:40:42;;;;;;;7.93;3.72;;;;;;;;;;5527695;26;20502;-72
2024/04/12 01:43:08;;;;;;;9.93;4.45;;;;;;;;;;5525629;25;19989;-72
2024/04/12 01:45:34;;;;;;;9.38;4.03;;;;;;;;;;5526430;25;19997;-72
2024/04/12 01:48:02;;;;;;;15.95;4.93;;;;;;;;;;5528033;25;19994;-71
2024/04/12 01:50:27;;;;;;;9.40;4.22;;;;;;;;;;5514031;25;19998;-73
2024/04/12 01:52:54;;;;;;;8.07;3.90;;;;;;;;;;5488784;26;20009;-71
2024/04/12 01:55:26;;;;;;;8.02;4.47;;;;;;;;;;5489724;26;19998;-72
2024/04/12 01:57:53;;;;;;;12.50;4.53;;;;;;;;;;5488624;26;19998;-72
2024/04/12 02:00:26;;;;;;;8.05;3.90;;;;;;;;;;5492019;26;19990;-71
2024/04/12 02:02:53;;;;;;;8.18;3.83;;;;;;;;;;5524917;25;19994;-71
2024/04/12 02:05:28;;;;;;;18.13;4.03;;;;;;;;;;5524987;25;20338;-71
2024/04/12 02:07:55;;;;;;;7.15;4.10;;;;;;;;;;5525583;25;20523;-72
2024/04/12 02:10:22;;;;;;;9.60;4.18;;;;;;;;;;5525326;25;20440;-72
2024/04/12 02:12:53;;;;;;;11.32;5.18;;;;;;;;;;5523184;25;20620;-73
2024/04/12 02:15:19;;;;;;;10.70;4.03;;;;;;;;;;5524703;25;19997;-72
2024/04/12 02:17:53;;;;;;;6.70;3.97;;;;;;;;;;5525709;25;20105;-72
2024/04/12 02:20:20;;;;;;;12.13;4.05;;;;;;;;;;5524902;25;20415;-71
2024/04/12 02:22:49;;;;;;;8.55;3.97;;;;;;;;;;5525161;25;19994;-72
2024/04/12 02:25:17;;;;;;;6.53;3.85;;;;;;;;;;5525942;25;19993;-72
2024/04/12 02:27:44;;;;;;;11.27;4.30;;;;;;;;;;5526547;25;20037;-71
2024/04/12 02:30:11;;;;;;;6.28;4.28;;;;;;;;;;5524713;25;19993;-72
2024/04/12 02:32:39;;;;;;;8.88;4.20;;;;;;;;;;5524098;25;20371;-73
2024/04/12 02:35:05;;;;;;;6.30;4.50;;;;;;;;;;5513715;25;20035;-71
2024/04/12 02:37:34;;;;;;;8.32;4.63;;;;;;;;;;5527035;26;19997;-72
2024/04/12 02:40:06;;;;;;;10.25;5.32;;;;;;;;;;5524744;26;19989;-72
2024/04/12 02:42:33;;;;;;;9.15;4.28;;;;;;;;;;5526235;26;20004;-72
2024/04/12 02:45:04;;;;;;;7.00;3.60;;;;;;;;;;5527642;25;20008;-72
2024/04/12 02:47:30;;;;;;;8.30;3.70;;;;;;;;;;5490642;26;20468;-72
2024/04/12 02:49:57;;;;;;;6.18;4.18;;;;;;;;;;5498135;26;19997;-72
2024/04/12 02:52:23;;;;;;;8.57;4.32;;;;;;;;;;5528357;25;20000;-72
2024/04/12 02:54:52;;;;;;;7.00;3.90;;;;;;;;;;5525531;25;20005;-70
2024/04/12 02:57:19;;;;;;;9.38;4.63;;;;;;;;;;5526353;25;20008;-72
2024/04/12 02:59:48;;;;;;;5.53;3.85;;;;;;;;;;5526430;25;20004;-71
2024/04/12 03:02:15;;;;;;;12.52;4.43;;;;;;;;;;5525753;26;19994;-73
2024/04/12 03:04:41;;;;;;;6.32;4.05;;;;;;;;;;5525081;25;20065;-72
2024/04/12 03:07:12;;;;;;;10.73;4.32;;;;;;;;;;5522442;26;20012;-72
2024/04/12 03:09:40;;;;;;;7.13;4.53;;;;;;;;;;5524804;25;20020;-73
2024/04/12 03:12:12;;;;;;;8.82;4.05;;;;;;;;;;5524033;25;19997;-72
2024/04/12 03:14:38;;;;;;;12.95;4.88;;;;;;;;;;5522814;25;20001;-71
2024/04/12 03:17:04;;;;;;;7.90;4.28;;;;;;;;;;5525469;25;20039;-71
2024/04/12 03:19:31;;;;;;;7.03;3.88;;;;;;;;;;5525633;26;20000;-72
2024/04/12 03:21:57;;;;;;;10.25;3.70;;;;;;;;;;5527179;25;20009;-72
2024/04/12 03:24:25;;;;;;;6.78;3.80;;;;;;;;;;5526745;25;19993;-72
2024/04/12 03:26:54;;;;;;;10.20;5.28;;;;;;;;;;5526022;26;20467;-72
2024/04/12 03:29:20;;;;;;;7.72;4.20;;;;;;;;;;5528747;25;19998;-72
2024/04/12 03:31:47;;;;;;;8.25;4.47;;;;;;;;;;5527414;25;20069;-71
2024/04/12 03:34:14;;;;;;;11.13;4.47;;;;;;;;;;5524207;25;19993;-71
2024/04/12 03:42:04;;;;;;;10.73;4.05;;;;;;;;;;5523243;25;20346;-72
2024/04/12 03:44:31;;;;;;;12.27;5.65;;;;;;;;;;5523911;25;20472;-72
2024/04/12 03:46:59;;;;;;;12.60;4.25;;;;;;;;;;5523397;25;19997;-72
2024/04/12 03:49:28;;;;;;;8.05;4.47;;;;;;;;;;5521872;25;19990;-71
2024/04/12 03:51:54;;;;;;;5.80;3.97;;;;;;;;;;5521697;25;19997;-72
2024/04/12 03:54:21;;;;;;;9.95;4.35;;;;;;;;;;5523707;25;20022;-72
2024/04/12 03:56:56;;;;;;;7.00;4.72;;;;;;;;;;5522215;26;20449;-73
2024/04/12 03:59:27;;;;;;;5.57;4.18;;;;;;;;;;5523075;26;20005;-72
2024/04/12 04:01:57;;;;;;;7.53;4.25;;;;;;;;;;5521942;25;20071;-72
2024/04/12 04:04:28;;;;;;;11.50;4.40;;;;;;;;;;5528343;25;20008;-72
2024/04/12 04:06:55;;;;;;;32.87;4.93;;;;;;;;;;5528474;25;20008;-72
2024/04/12 04:09:27;;;;;;;14.57;6.03;;;;;;;;;;5527175;25;20473;-71
2024/04/12 04:11:53;;;;;;;8.85;4.78;;;;;;;;;;5527113;25;19990;-72
2024/04/12 04:14:20;;;;;;;8.40;4.78;;;;;;;;;;5528599;25;19989;-72
2024/04/12 04:16:49;;;;;;;14.80;4.85;;;;;;;;;;5514912;25;20065;-72
2024/04/12 04:19:17;;;;;;;9.45;4.53;;;;;;;;;;5525928;25;20002;-73
2024/04/12 04:21:43;;;;;;;10.98;5.00;;;;;;;;;;5524692;25;19998;-72
2024/04/12 04:24:09;;;;;;;9.25;4.32;;;;;;;;;;5526084;25;20042;-73
2024/04/12 04:26:40;;;;;;;8.00;4.47;;;;;;;;;;5509248;25;20006;-72
2024/04/12 04:29:12;;;;;;;8.45;4.30;;;;;;;;;;5527262;26;20090;-73
2024/04/12 04:31:50;;;;;;;11.75;4.30;;;;;;;;;;5526028;26;20009;-72
2024/04/12 04:34:20;;;;;;;10.98;4.68;;;;;;;;;;5524471;26;19998;-71
2024/04/12 04:36:49;;;;;;;12.10;4.45;;;;;;;;;;5526764;26;20459;-71
2024/04/12 04:39:16;;;;;;;12.40;4.45;;;;;;;;;;5527064;25;20089;-73
2024/04/12 04:41:43;;;;;;;10.88;4.10;;;;;;;;;;5526825;25;20008;-72
2024/04/12 04:44:09;;;;;;;11.18;4.88;;;;;;;;;;5525018;25;20081;-73
2024/04/12 04:46:35;;;;;;;15.75;3.92;;;;;;;;;;5527528;25;20001;-72
2024/04/12 04:49:04;;;;;;;14.32;5.10;;;;;;;;;;5526616;26;19997;-73
2024/04/12 04:51:30;;;;;;;11.15;3.97;;;;;;;;;;5513486;25;20013;-73
2024/04/12 04:53:59;;;;;;;11.98;5.07;;;;;;;;;;5524506;25;20034;-73
2024/04/12 04:56:25;;;;;;;11.02;4.47;;;;;;;;;;5526929;26;20347;-72
2024/04/12 04:58:52;;;;;;;10.07;5.28;;;;;;;;;;5532898;25;19997;-74
2024/04/12 05:01:18;;;;;;;9.52;4.25;;;;;;;;;;5532656;25;20038;-72
2024/04/12 05:03:49;;;;;;;13.43;4.80;;;;;;;;;;5532055;26;19998;-72
2024/04/12 05:06:24;;;;;;;10.43;4.55;;;;;;;;;;5533806;25;20005;-72
2024/04/12 05:08:52;;;;;;;15.00;4.20;;;;;;;;;;5529141;25;19998;-74
2024/04/12 05:11:18;;;;;;;18.13;4.10;;;;;;;;;;5527081;25;20008;-73
2024/04/12 05:13:49;;;;;;;9.88;3.70;;;;;;;;;;5528585;25;19994;-72
2024/04/12 05:16:18;;;;;;;10.27;4.38;;;;;;;;;;5527505;25;20007;-73
2024/04/12 05:18:44;;;;;;;16.45;5.28;;;;;;;;;;5527537;25;20012;-73
2024/04/12 05:21:13;;;;;;;11.20;4.03;;;;;;;;;;5527190;25;19997;-73
2024/04/12 05:23:42;;;;;;;11.73;4.97;;;;;;;;;;5526879;25;20009;-73
2024/04/12 05:26:09;;;;;;;11.65;4.97;;;;;;;;;;5520969;25;20096;-72
2024/04/12 05:28:35;;;;;;;19.90;5.60;;;;;;;;;;5524876;25;20001;-73
2024/04/12 05:31:02;;;;;;;13.27;5.88;;;;;;;;;;5524717;25;20011;-73
2024/04/12 05:33:29;;;;;;;18.83;5.13;;;;;;;;;;5524913;25;20002;-73
2024/04/12 05:35:56;;;;;;;11.63;5.40;;;;;;;;;;5524601;25;19998;-73
2024/04/12 05:38:24;;;;;;;11.20;5.50;;;;;;;;;;5525188;25;20001;-73
2024/04/12 05:40:54;;;;;;;17.73;5.20;;;;;;;;;;5523456;26;20513;-74
2024/04/12 05:43:21;;;;;;;18.05;5.25;;;;;;;;;;5523201;26;20387;-74
2024/04/12 05:45:49;;;;;;;15.38;6.10;;;;;;;;;;5524624;26;19997;-74
2024/04/12 05:48:21;;;;;;;11.65;5.20;;;;;;;;;;5525752;26;20448;-74
2024/04/12 05:50:48;;;;;;;;;;;;;;;;;;5527170;26;20029;-73
2024/04/12 05:53:14;;;;;;;9.85;4.70;;;;;;;;;;5525955;26;19938;-73
2024/04/12 05:55:44;;;;;;;12.07;5.05;;;;;;;;;;5526747;26;20016;-74
2024/04/12 05:58:14;;;;;;;14.20;5.13;;;;;;;;;;5495136;26;20016;-73
2024/04/12 06:00:43;;;;;;;10.88;5.07;;;;;;;;;;5523719;26;20460;-72
2024/04/12 06:03:14;;;;;;;12.93;5.40;;;;;;;;;;5524499;25;20005;-72
2024/04/12 06:05:40;;;;;;;15.52;5.97;;;;;;;;;;5523066;26;20428;-72
2024/04/12 06:08:06;;;;;;;10.35;5.85;;;;;;;;;;5522857;25;19997;-73
2024/04/12 06:10:32;;;;;;;10.35;5.13;;;;;;;;;;5525675;25;20008;-73
2024/04/12 06:13:05;;;;;;;13.00;5.28;;;;;;;;;;5521986;25;20001;-74
2024/04/12 06:15:36;;;;;;;14.05;5.40;;;;;;;;;;5524915;25;19997;-73
2024/04/12 06:18:02;;;;;;;15.60;5.03;;;;;;;;;;5524019;26;20009;-73
2024/04/12 06:20:30;;;;;;;17.65;5.20;;;;;;;;;;5522781;25;20081;-73
2024/04/12 06:23:06;;;;;;;11.57;4.93;;;;;;;;;;5524052;26;20012;-72
2024/04/12 06:25:45;;;;;;;11.55;5.10;;;;;;;;;;5522298;25;20012;-73
2024/04/12 06:28:14;;;;;;;8.85;5.05;;;;;;;;;;5511125;25;20005;-72
2024/04/12 06:30:46;;;;;;;14.48;5.28;;;;;;;;;;5520747;25;20012;-72
2024/04/12 06:33:12;;;;;;;11.65;5.10;;;;;;;;;;5520138;25;19997;-72
2024/04/12 06:35:40;;;;;;;10.63;4.50;;;;;;;;;;5521857;25;20013;-72
2024/04/12 06:38:09;;;;;;;13.00;4.78;;;;;;;;;;5514872;25;20013;-73
2024/04/12 06:40:37;;;;;;;17.77;4.72;;;;;;;;;;5522129;26;20009;-73
2024/04/12 06:43:07;;;;;;;10.20;4.93;;;;;;;;;;5520287;25;20009;-73
2024/04/12 06:45:41;;;;;;;14.13;5.07;;;;;;;;;;5521198;25;20040;-73
2024/04/12 06:48:16;;;;;;;15.63;5.05;;;;;;;;;;5517006;26;20479;-74
2024/04/12 06:50:52;;;;;;;13.70;5.40;;;;;;;;;;5521436;26;20357;-74
2024/04/12 06:53:21;;;;;;;8.85;4.70;;;;;;;;;;5521598;25;20012;-73
2024/04/12 06:55:48;;;;;;;13.77;4.78;;;;;;;;;;5523621;26;20013;-73
2024/04/12 06:58:15;;;;;;;10.35;5.18;;;;;;;;;;5521306;26;20010;-73
2024/04/12 07:00:43;;;;;;;12.15;4.40;;;;;;;;;;5523232;25;20005;-74
2024/04/12 07:03:15;;;;;;;9.27;4.22;;;;;;;;;;5521694;25;20447;-73
2024/04/12 07:05:47;;;;;;;8.88;4.72;;;;;;;;;;5523323;26;20343;-73
2024/04/12 07:08:16;;;;;;;9.52;4.10;;;;;;;;;;5522663;25;20534;-73
2024/04/12 07:10:42;;;;;;;14.40;4.60;;;;;;;;;;5521244;26;20010;-72
2024/04/12 07:13:08;;;;;;;18.98;4.32;;;;;;;;;;5520397;26;20016;-73
2024/04/12 07:15:34;;;;;;;11.75;4.88;;;;;;;;;;5520230;25;20012;-72
2024/04/12 07:18:02;;;;;;;9.88;5.00;;;;;;;;;;5521718;25;19997;-73
2024/04/12 07:20:36;;;;;;;12.30;4.95;;;;;;;;;;5519690;26;20085;-72
2024/04/12 07:23:03;;;;;;;12.40;5.55;;;;;;;;;;5519186;26;19994;-68
2024/04/12 07:25:30;;;;;;;15.52;5.68;;;;;;;;;;5519088;26;19998;-70
2024/04/12 07:27:56;;;;;;;16.58;5.85;;;;;;;;;;5487168;26;20022;-71
2024/04/12 07:30:22;;;;;;;14.18;5.13;;;;;;;;;;5487894;26;20348;-69
2024/04/12 07:32:50;;;;;;;10.45;4.85;;;;;;;;;;5483438;26;20002;-70
2024/04/12 07:35:26;;;;;;;10.38;4.97;;;;;;;;;;5499829;26;20047;-70
2024/04/12 07:37:59;;;;;;;15.10;5.40;;;;;;;;;;5493409;26;20001;-70
2024/04/12 07:40:25;;;;;;;6.95;3.85;;;;;;;;;;5491236;26;20005;-71
2024/04/12 07:42:52;;;;;;;10.45;3.42;;;;;;;;;;5504601;26;20012;-71
2024/04/12 07:45:23;;;;;;;11.73;3.22;;;;;;;;;;5499556;26;20002;-72
2024/04/12 07:47:52;;;;;;;10.57;3.75;;;;;;;;;;5551229;25;20072;-70
2024/04/12 07:50:28;;;;;;;8.02;3.47;;;;;;;;;;5520729;25;20001;-70
2024/04/12 07:52:55;;;;;;;11.85;3.35;;;;;;;;;;5520066;25;20005;-71
2024/04/12 07:55:24;;;;;;;8.02;3.00;;;;;;;;;;5521774;25;20433;-71
2024/04/12 07:57:53;;;;;;;7.50;3.03;;;;;;;;;;5524769;25;20444;-71
2024/04/12 08:00:27;;;;;;;7.45;2.78;;;;;;;;;;5508048;25;20305;-71
2024/04/12 08:02:55;;;;;;;6.60;2.30;;;;;;;;;;5493547;26;20002;-71
2024/04/12 08:05:25;;;;;;;6.85;2.17;;;;;;;;;;5519745;25;19997;-70
2024/04/12 08:07:57;;;;;;;11.20;2.67;;;;;;;;;;5525355;26;20005;-70
2024/04/12 08:10:29;;;;;;;8.57;2.20;;;;;;;;;;5524834;25;20103;-72
2024/04/12 08:12:57;;;;;;;9.32;2.47;;;;;;;;;;5522138;25;20397;-71
2024/04/12 08:15:23;;;;;;;8.52;1.98;;;;;;;;;;5531143;26;20069;-77
2024/04/12 08:17:49;;;;;;;6.22;2.38;;;;;;;;;;5518336;25;20468;-74
2024/04/12 08:20:25;;;;;;;4.53;2.65;;;;;;;;;;5513018;25;20005;-73
2024/04/12 08:22:52;;;;;;;10.18;3.65;;;;;;;;;;5525505;25;20339;-76
2024/04/12 08:25:18;;;;;;;7.63;3.00;;;;;;;;;;5507685;26;20002;-75
2024/04/12 08:27:44;;;;;;;7.50;3.80;;;;;;;;;;5510687;25;20001;-73
2024/04/12 08:30:13;;;;;;;9.48;3.05;;;;;;;;;;5515551;26;20009;-72
2024/04/12 08:32:48;;;;;;;5.18;2.60;;;;;;;;;;5503983;26;19998;-72
2024/04/12 08:35:19;;;;;;;7.05;2.30;;;;;;;;;;5509319;26;19997;-73
2024/04/12 08:37:46;;;;;;;6.57;2.70;;;;;;;;;;5507422;26;20015;-74
2024/04/12 08:40:13;;;;;;;9.27;2.95;;;;;;;;;;5506357;26;20014;-72
2024/04/12 08:42:39;;;;;;;4.00;2.67;;;;;;;;;;5505721;25;20006;-72
2024/04/12 08:45:13;;;;;;;6.15;2.42;;;;;;;;;;5517990;26;20050;-80
2024/04/12 08:47:54;;;;;;;9.30;3.08;;;;;;;;;;5536905;26;20012;-78
2024/04/12 08:50:23;;;;;;;;;;;;;;;;;;5513332;26;20017;-79
2024/04/12 08:52:53;;;;;;;7.82;2.55;;;;;;;;;;5537549;26;19926;-78
2024/04/12 08:55:20;;;;;;;9.93;2.85;;;;;;;;;;5532475;26;20256;-78
2024/04/12 08:57:48;;;;;;;8.90;2.30;;;;;;;;;;5514433;25;20009;-81
2024/04/12 09:00:21;;;;;;;10.80;2.00;;;;;;;;;;5516764;26;20030;-77
2024/04/12 09:02:58;;;;;;;12.93;3.42;;;;;;;;;;5507044;26;20009;-72
2024/04/12 09:05:25;;;;;;;7.20;2.55;;;;;;;;;;5507306;26;20496;-72
2024/04/12 09:08:00;;;;;;;12.23;2.90;;;;;;;;;;5512430;26;20006;-73
2024/04/12 09:10:27;;;;;;;8.02;2.78;;;;;;;;;;5499086;26;20033;-72
2024/04/12 09:12:53;;;;;;;8.45;2.78;;;;;;;;;;5513144;25;20070;-72
2024/04/12 09:15:27;;;;;;;16.27;2.30;;;;;;;;;;5510522;25;20001;-73
2024/04/12 09:18:13;;;;;;;15.20;3.42;;;;;;;;;;5516718;25;20017;-72
2024/04/12 09:20:40;;;;;;;4.25;2.35;;;;;;;;;;5524623;25;20005;-73
2024/04/12 09:23:14;;;;;;;8.70;2.55;;;;;;;;;;5525105;26;20031;-74
2024/04/12 09:25:44;;;;;;;13.43;2.55;;;;;;;;;;5526039;25;19998;-73
2024/04/12 09:28:13;;;;;;;6.63;2.22;;;;;;;;;;5517940;25;20033;-74
2024/04/12 09:33:27;;;;;;;7.63;1.67;;;;;;;;;;5504009;26;20017;-74
2024/04/12 09:35:54;;;;;;;6.22;1.63;;;;;;;;;;5512256;25;19997;-73
2024/04/12 09:38:21;;;;;;;7.85;1.70;;;;;;;;;;5514890;25;20059;-73
2024/04/12 09:41:02;;;;;;;2.72;1.80;;;;;;;;;;5514043;26;19997;-73
2024/04/12 09:43:29;;;;;;;6.57;1.65;;;;;;;;;;5519819;25;20001;-72
2024/04/12 09:46:09;;;;;;;7.78;1.52;;;;;;;;;;5518026;26;20069;-73
2024/04/12 10:38:54;;;;;;;4.22;1.02;;;;;;;;;;5522203;26;20012;-75
2024/04/12 10:41:22;;;;;;;4.07;1.58;;;;;;;;;;5526292;25;20003;-73
2024/04/12 10:43:51;;;;;;;5.47;2.08;;;;;;;;;;5523739;26;20004;-74
2024/04/12 10:46:17;;;;;;;8.98;4.35;;;;;;;;;;5523701;25;20322;-73
2024/04/12 10:48:43;;;;;;;6.80;1.90;;;;;;;;;;5523915;25;20001;-75
2024/04/12 10:51:12;;;;;;;4.60;1.35;;;;;;;;;;5528022;25;20009;-78
2024/04/12 10:53:39;;;;;;;4.38;1.63;;;;;;;;;;5528724;25;20061;-77
2024/04/12 10:56:07;;;;;;;6.35;1.60;;;;;;;;;;5527230;25;19994;-77
2024/04/12 10:58:33;;;;;;;12.00;2.75;;;;;;;;;;5531430;25;19993;-78
2024/04/12 11:01:04;;;;;;;6.18;1.85;;;;;;;;;;5532191;25;20012;-79
2024/04/12 11:03:30;;;;;;;10.00;1.42;;;;;;;;;;5526671;25;19993;-76
2024/04/12 11:06:17;;;;;;;3.75;2.17;;;;;;;;;;5525202;25;20001;-75
2024/04/12 11:08:42;;;;;;;8.32;1.77;;;;;;;;;;5525851;26;20012;-77
2024/04/12 11:11:19;;;;;;;9.48;1.70;;;;;;;;;;5524355;26;20011;-78
2024/04/12 11:13:47;;;;;;;4.88;1.65;;;;;;;;;;5507233;26;19999;-78
2024/04/12 11:32:45;;;;;;;7.10;0.90;;;;;;;;;;5526466;25;20008;-72
2024/04/12 11:35:11;;;;;;;3.72;1.10;;;;;;;;;;5524147;25;19997;-74
2024/04/12 11:37:40;;;;;;;6.15;1.50;;;;;;;;;;5525122;25;20466;-73
2024/04/12 11:40:16;;;;;;;8.85;1.80;;;;;;;;;;5526941;25;20001;-76
2024/04/12 11:42:45;;;;;;;1.15;0.50;;;;;;;;;;5524634;25;20002;-71
2024/04/12 11:45:14;;;;;;;5.82;1.80;;;;;;;;;;5523512;25;20002;-75
2024/04/12 11:47:40;;;;;;;2.08;0.77;;;;;;;;;;5528664;25;20072;-76
2024/04/12 11:50:10;;;;;;;4.88;2.92;;;;;;;;;;5526496;25;20001;-73
2024/04/12 11:52:38;;;;;;;6.93;3.10;;;;;;;;;;5524451;25;20002;-72
2024/04/12 11:55:06;;;;;;;1.60;0.88;;;;;;;;;;5526265;25;20016;-73
2024/04/12 11:57:36;;;;;;;3.05;1.00;;;;;;;;;;5521611;26;20073;-73
2024/04/12 12:00:08;;;;;;;1.65;0.70;;;;;;;;;;5490024;26;19997;-73
2024/04/12 12:02:35;;;;;;;4.07;0.50;;;;;;;;;;5495541;26;20009;-74
2024/04/12 12:05:01;;;;;;;1.38;0.30;;;;;;;;;;5522209;26;20012;-75
2024/04/12 12:07:27;;;;;;;3.00;0.45;;;;;;;;;;5529965;25;20413;-75
2024/04/12 12:09:53;;;;;;;0.70;0.30;;;;;;;;;;5532481;26;20073;-75
2024/04/12 12:12:22;;;;;;;1.08;0.63;;;;;;;;;;5493952;26;20013;-75
2024/04/12 12:14:51;;;;;;;0.70;0.30;;;;;;;;;;5513259;25;20016;-75
2024/04/12 12:17:18;;;;;;;3.03;1.55;;;;;;;;;;5526557;25;20013;-75
2024/04/12 12:19:46;;;;;;;2.72;0.38;;;;;;;;;;5523470;25;20086;-73
2024/04/12 12:22:12;;;;;;;0.65;0.30;;;;;;;;;;5522224;26;20459;-72
2024/04/12 12:24:38;;;;;;;1.58;0.40;;;;;;;;;;5526965;26;20011;-73
2024/04/12 12:27:08;;;;;;;0.85;0.20;;;;;;;;;;5514434;25;20010;-72
2024/04/12 12:29:42;;;;;;;0.60;0.30;;;;;;;;;;5486724;26;20001;-73
2024/04/12 12:32:08;;;;;;;0.57;0.57;;;;;;;;;;5519603;25;19997;-73
2024/04/12 12:34:34;;;;;;;3.30;0.40;;;;;;;;;;5509315;26;20029;-73
2024/04/12 12:37:01;;;;;;;1.92;1.20;;;;;;;;;;5487881;26;19994;-72
2024/04/12 12:39:31;;;;;;;1.75;1.02;;;;;;;;;;5486034;26;20009;-73
2024/04/12 12:41:58;;;;;;;2.33;0.75;;;;;;;;;;5498101;25;20033;-72
2024/04/12 12:44:28;;;;;;;2.05;1.20;;;;;;;;;;5520872;25;20049;-73
2024/04/12 12:46:54;;;;;;;1.05;0.65;;;;;;;;;;5525881;25;20324;-74
2024/04/12 12:49:21;;;;;;;3.67;0.60;;;;;;;;;;5523842;25;19998;-73
2024/04/12 12:51:47;;;;;;;20.65;6.32;;;;;;;;;;5524493;25;19993;-74
2024/04/12 12:54:13;;;;;;;1.40;0.40;;;;;;;;;;5524939;25;20077;-73
2024/04/12 12:56:40;;;;;;;0.60;0.30;;;;;;;;;;5524012;25;20012;-72
2024/04/12 12:59:06;;;;;;;2.53;0.43;;;;;;;;;;5524972;25;20009;-74
2024/04/12 13:01:35;;;;;;;4.50;0.50;;;;;;;;;;5524912;25;20062;-73
2024/04/12 13:04:05;;;;;;;1.67;1.17;;;;;;;;;;5522982;25;19997;-73
2024/04/12 13:06:34;;;;;;;2.25;0.20;;;;;;;;;;5521459;26;20511;-73
2024/04/12 13:09:00;;;;;;;4.25;0.68;;;;;;;;;;5524738;25;20009;-72
2024/04/12 13:11:26;;;;;;;3.90;2.15;;;;;;;;;;5521569;25;20008;-73
2024/04/12 13:13:53;;;;;;;0.75;0.57;;;;;;;;;;5523553;25;20025;-73
2024/04/12 13:16:19;;;;;;;0.77;0.47;;;;;;;;;;5523648;26;20073;-73
2024/04/12 13:18:45;;;;;;;1.13;0.22;;;;;;;;;;5522842;25;20063;-74
2024/04/12 13:21:12;;;;;;;2.20;0.57;;;;;;;;;;5521718;25;19997;-72
2024/04/12 13:23:39;;;;;;;3.47;1.20;;;;;;;;;;5522085;25;20008;-74
2024/04/12 13:26:08;;;;;;;3.03;0.90;;;;;;;;;;5521486;26;19998;-72
2024/04/12 13:28:35;;;;;;;2.47;1.00;;;;;;;;;;5524017;25;20405;-73
2024/04/12 13:31:01;;;;;;;1.45;0.55;;;;;;;;;;5524114;25;20013;-74
2024/04/12 13:33:27;;;;;;;4.28;0.90;;;;;;;;;;5522523;26;19993;-74
2024/04/12 13:35:54;;;;;;;5.35;1.08;;;;;;;;;;5520809;25;20013;-72
2024/04/12 13:38:20;;;;;;;1.63;0.38;;;;;;;;;;5522455;25;20398;-73
2024/04/12 13:40:49;;;;;;;3.15;0.57;;;;;;;;;;5524178;25;19997;-72
2024/04/12 13:43:16;;;;;;;1.27;0.57;;;;;;;;;;5524151;25;19989;-72
2024/04/12 13:51:18;;;;;;;21.80;1.13;;;;;;;;;;5523787;26;20011;-73
2024/04/12 13:53:44;;;;;;;1.20;0.40;;;;;;;;;;5522756;26;20016;-73
2024/04/12 13:58:48;;;;;;;1.30;0.68;;;;;;;;;;5523659;25;20034;-73
2024/04/12 14:01:15;;;;;;;1.88;0.77;;;;;;;;;;5523328;25;20005;-72
2024/04/12 14:03:41;;;;;;;1.30;0.40;;;;;;;;;;5523994;25;20025;-72
2024/04/12 14:06:07;;;;;;;4.53;1.38;;;;;;;;;;5526901;26;20001;-74
2024/04/12 14:08:33;;;;;;;1.13;0.55;;;;;;;;;;5525782;25;19997;-73
2024/04/12 14:11:00;;;;;;;5.93;3.80;;;;;;;;;;5525971;25;20009;-72
2024/04/12 14:13:28;;;;;;;5.20;1.58;;;;;;;;;;5525062;26;20009;-74
2024/04/12 14:15:54;;;;;;;0.95;0.60;;;;;;;;;;5514273;26;20051;-72
2024/04/12 14:18:20;;;;;;;1.13;0.60;;;;;;;;;;5493498;26;20064;-75
2024/04/12 14:20:47;;;;;;;2.00;1.08;;;;;;;;;;5495410;26;20334;-73
2024/04/12 14:23:13;;;;;;;4.95;1.65;;;;;;;;;;5526505;25;19993;-73
2024/04/12 14:25:39;;;;;;;3.25;0.65;;;;;;;;;;5527332;25;20348;-75
2024/04/12 14:28:05;;;;;;;1.45;0.55;;;;;;;;;;5529003;26;19997;-73
2024/04/12 14:30:31;;;;;;;5.25;0.63;;;;;;;;;;5519766;25;19998;-73
2024/04/12 14:32:57;;;;;;;2.38;0.50;;;;;;;;;;5487568;26;20029;-74
2024/04/12 14:35:24;;;;;;;2.78;0.60;;;;;;;;;;5510833;26;20033;-73
2024/04/12 14:37:50;;;;;;;2.17;0.65;;;;;;;;;;5523072;25;20001;-72
2024/04/12 14:40:19;;;;;;;2.15;0.55;;;;;;;;;;5518980;25;19993;-73
2024/04/12 14:42:49;;;;;;;2.50;0.70;;;;;;;;;;5521668;25;20005;-74
2024/04/12 14:45:15;;;;;;;2.47;0.50;;;;;;;;;;5490510;26;20074;-74
2024/04/12 14:47:41;;;;;;;14.02;1.25;;;;;;;;;;5486737;26;19994;-71
2024/04/12 14:50:10;;;;;;;1.70;0.77;;;;;;;;;;5511960;25;20077;-71
2024/04/12 14:52:43;;;;;;;4.07;1.30;;;;;;;;;;5522076;25;20007;-73
2024/04/12 14:55:12;;;;;;;12.13;1.73;;;;;;;;;;5520485;25;20104;-72
2024/04/12 14:57:46;;;;;;;4.15;0.80;;;;;;;;;;5521398;26;20073;-72
2024/04/12 15:00:13;;;;;;;3.40;1.30;;;;;;;;;;5522825;25;20076;-71
2024/04/12 15:49:21;;;;;;;3.08;0.90;;;;;;;;;;5521842;25;20027;-72
2024/04/12 15:51:51;;;;;;;1.02;0.50;;;;;;;;;;5517723;25;20005;-74
2024/04/12 15:54:17;;;;;;;5.93;1.77;;;;;;;;;;5520695;25;20001;-72
2024/04/12 16:13:13;;;;;;;17.13;1.52;;;;;;;;;;5518178;26;20004;-71
2024/04/12 16:15:40;;;;;;;4.07;0.82;;;;;;;;;;5514018;25;20012;-73
2024/04/12 16:18:06;;;;;;;7.85;1.00;;;;;;;;;;5516795;26;19998;-72
2024/04/12 16:20:33;;;;;;;10.20;1.88;;;;;;;;;;5515946;25;20001;-74
2024/04/12 16:23:00;;;;;;;33.30;3.50;;;;;;;;;;5518761;26;20013;-74
2024/04/12 16:25:26;;;;;;;18.23;2.65;;;;;;;;;;5519208;25;20414;-73
2024/04/12 16:27:55;;;;;;;7.47;1.27;;;;;;;;;;5521911;25;20050;-72
2024/04/12 16:30:22;;;;;;;4.30;1.90;;;;;;;;;;5521398;26;20001;-72
2024/04/12 16:32:48;;;;;;;9.18;1.60;;;;;;;;;;5522810;25;19997;-79
2024/04/12 16:35:14;;;;;;;18.98;6.05;;;;;;;;;;5520838;25;19997;-73
2024/04/12 16:37:40;;;;;;;16.10;3.20;;;;;;;;;;5524958;25;19993;-76
2024/04/12 16:40:06;;;;;;;5.13;2.30;;;;;;;;;;5522646;25;19993;-74
2024/04/12 16:42:33;;;;;;;7.43;1.40;;;;;;;;;;5519933;25;20431;-73
2024/04/12 16:44:59;;;;;;;3.13;0.90;;;;;;;;;;5520240;25;20052;-75
2024/04/12 16:47:25;;;;;;;3.70;2.30;;;;;;;;;;5524866;25;20412;-75
2024/04/12 16:49:51;;;;;;;7.07;4.28;;;;;;;;;;5521554;25;19993;-79
2024/04/12 16:52:17;;;;;;;5.80;4.43;;;;;;;;;;5523246;26;19998;-77
2024/04/12 16:54:43;;;;;;;7.50;4.38;;;;;;;;;;5523744;26;20092;-77
2024/04/12 16:57:11;;;;;;;15.73;3.80;;;;;;;;;;5522052;25;20009;-76
2024/04/12 16:59:38;;;;;;;8.75;3.35;;;;;;;;;;5524697;25;20022;-77
2024/04/12 17:02:04;;;;;;;6.53;4.20;;;;;;;;;;5521002;26;20116;-77
2024/04/12 17:04:30;;;;;;;2.58;1.65;;;;;;;;;;5521416;25;20008;-77
2024/04/12 17:06:57;;;;;;;10.00;5.00;;;;;;;;;;5491961;26;19999;-76
2024/04/12 17:09:24;;;;;;;18.10;12.00;;;;;;;;;;5484064;26;19998;-75
2024/04/12 17:11:50;;;;;;;9.00;5.40;;;;;;;;;;5483618;26;20002;-75